createdAt,value
2022-11-20T00:04:51.238Z,37.20
2022-11-20T00:10:11.303Z,37.40
2022-11-20T00:15:31.256Z,37.30
2022-11-20T00:20:51.428Z,37.40
2022-11-20T00:26:11.580Z,37.20
2022-11-20T00:31:31.811Z,37.20
2022-11-20T00:36:51.834Z,37.20
2022-11-20T00:42:11.962Z,37.10
2022-11-20T00:47:32.065Z,37.20
2022-11-20T00:52:52.175Z,37.10
2022-11-20T00:58:14.426Z,37.10
2022-11-20T01:03:34.441Z,37.20
2022-11-20T01:08:54.599Z,37.10
2022-11-20T01:14:14.765Z,37.20
2022-11-20T01:19:34.916Z,37.00
2022-11-20T01:24:55.036Z,37.10
2022-11-20T01:30:15.098Z,37.20
2022-11-20T01:35:35.236Z,37.30
2022-11-20T01:40:55.256Z,38.20
2022-11-20T01:46:15.414Z,38.20
2022-11-20T01:51:35.670Z,38.20
2022-11-20T01:56:55.879Z,38.30
2022-11-20T02:02:16.071Z,38.40
2022-11-20T02:07:36.284Z,38.40
2022-11-20T02:12:56.301Z,38.40
2022-11-20T02:18:16.372Z,38.40
2022-11-20T02:23:36.449Z,38.40
2022-11-20T02:28:56.566Z,38.50
2022-11-20T02:34:16.537Z,38.50
2022-11-20T02:39:36.797Z,38.50
2022-11-20T02:44:56.848Z,38.60
2022-11-20T02:50:17.114Z,38.60
2022-11-20T02:55:37.301Z,38.70
2022-11-20T03:00:57.443Z,38.70
2022-11-20T03:06:17.599Z,38.70
2022-11-20T03:11:37.809Z,38.70
2022-11-20T03:16:57.941Z,38.80
2022-11-20T03:22:18.119Z,38.70
2022-11-20T03:27:38.814Z,38.80
2022-11-20T03:32:59.007Z,38.80
2022-11-20T03:38:19.126Z,38.80
2022-11-20T03:43:39.392Z,38.80
2022-11-20T03:48:59.476Z,38.90
2022-11-20T03:54:19.728Z,38.90
2022-11-20T03:59:39.830Z,38.90
2022-11-20T04:05:00.143Z,38.90
2022-11-20T04:10:20.279Z,38.90
2022-11-20T04:15:40.576Z,38.90
2022-11-20T04:21:00.698Z,38.90
2022-11-20T04:26:20.994Z,39.00
2022-11-20T04:31:41.101Z,39.00
2022-11-20T04:37:01.135Z,39.00
2022-11-20T04:42:21.234Z,39.00
2022-11-20T04:47:41.361Z,39.00
2022-11-20T04:53:01.561Z,39.00
2022-11-20T04:58:21.640Z,39.10
2022-11-20T05:03:42.600Z,39.10
2022-11-20T05:09:02.956Z,39.10
2022-11-20T05:14:23.128Z,39.00
2022-11-20T05:19:43.373Z,39.00
2022-11-20T05:25:03.506Z,39.10
2022-11-20T05:30:23.760Z,39.10
2022-11-20T05:35:43.870Z,39.20
2022-11-20T05:41:04.179Z,39.10
2022-11-20T05:46:28.377Z,39.10
2022-11-20T05:51:49.197Z,39.20
2022-11-20T05:57:09.285Z,39.10
2022-11-20T06:02:29.412Z,39.10
2022-11-20T06:07:49.401Z,39.20
2022-11-20T06:13:09.565Z,39.20
2022-11-20T06:18:29.658Z,39.20
2022-11-20T06:23:49.785Z,39.20
2022-11-20T06:29:09.975Z,39.20
2022-11-20T06:34:30.037Z,39.20
2022-11-20T06:39:50.133Z,39.20
2022-11-20T06:45:10.414Z,39.20
2022-11-20T06:50:30.473Z,39.20
2022-11-20T06:55:50.639Z,39.20
2022-11-20T07:01:10.850Z,39.30
2022-11-20T07:06:31.077Z,39.20
2022-11-20T07:11:51.330Z,39.20
2022-11-20T07:17:11.536Z,39.30
2022-11-20T07:22:31.725Z,39.20
2022-11-20T07:27:52.174Z,39.20
2022-11-20T07:33:12.232Z,39.30
2022-11-20T07:38:32.435Z,39.30
2022-11-20T07:43:52.962Z,39.30
2022-11-20T07:49:13.107Z,39.30
2022-11-20T07:54:33.320Z,39.20
2022-11-20T07:59:53.524Z,39.40
2022-11-20T08:05:13.959Z,39.30
2022-11-20T08:10:34.218Z,39.20
2022-11-20T08:15:54.274Z,39.30
2022-11-20T08:21:14.638Z,39.20
2022-11-20T08:26:34.780Z,39.30
2022-11-20T08:31:55.173Z,39.30
2022-11-20T08:37:15.272Z,39.30
2022-11-20T08:42:35.602Z,39.30
2022-11-20T08:47:55.791Z,39.30
2022-11-20T08:53:15.991Z,39.20
2022-11-20T08:59:01.854Z,39.10
2022-11-20T09:04:15.964Z,39.10
2022-11-20T09:09:36.069Z,39.10
2022-11-20T09:14:56.262Z,39.10
2022-11-20T09:20:16.320Z,39.10
2022-11-20T09:25:36.539Z,39.10
2022-11-20T09:30:56.692Z,39.10
2022-11-20T09:36:16.809Z,39.20
2022-11-20T09:41:36.865Z,39.20
2022-11-20T09:46:57.079Z,39.10
2022-11-20T09:52:16.995Z,39.20
2022-11-20T09:57:37.077Z,39.20
2022-11-20T10:02:57.108Z,39.20
2022-11-20T10:08:17.276Z,39.20
2022-11-20T10:13:37.296Z,39.20
2022-11-20T10:18:57.504Z,39.30
2022-11-20T10:24:17.525Z,39.40
2022-11-20T10:29:37.818Z,39.40
2022-11-20T10:34:57.944Z,39.30
2022-11-20T10:40:19.689Z,39.40
2022-11-20T10:45:39.835Z,39.30
2022-11-20T10:51:00.044Z,39.40
2022-11-20T10:56:20.111Z,39.40
2022-11-20T11:01:40.415Z,39.40
2022-11-20T11:07:00.591Z,39.40
2022-11-20T11:12:20.711Z,39.40
2022-11-20T11:17:40.727Z,39.40
2022-11-20T11:23:00.952Z,39.40
2022-11-20T11:28:20.981Z,39.40
2022-11-20T11:33:41.317Z,39.40
2022-11-20T11:39:01.624Z,39.40
2022-11-20T11:44:21.815Z,39.40
2022-11-20T11:49:41.887Z,39.40
2022-11-20T11:55:04.875Z,39.40
2022-11-20T12:00:29.945Z,39.40
2022-11-20T12:05:50.080Z,39.40
2022-11-20T12:11:10.479Z,39.50
2022-11-20T12:16:30.701Z,39.50
2022-11-20T12:21:50.878Z,39.50
2022-11-20T12:27:10.926Z,39.70
2022-11-20T12:32:31.158Z,39.90
2022-11-20T12:37:51.361Z,39.80
2022-11-20T12:43:11.615Z,39.80
2022-11-20T12:48:31.763Z,39.90
2022-11-20T12:53:52.013Z,39.90
2022-11-20T12:59:12.057Z,39.80
2022-11-20T13:04:32.291Z,39.80
2022-11-20T13:09:53.975Z,39.80
2022-11-20T13:15:15.608Z,39.80
2022-11-20T13:20:35.639Z,39.90
2022-11-20T13:25:55.997Z,39.90
2022-11-20T13:31:16.156Z,40.00
2022-11-20T13:36:36.340Z,39.90
2022-11-20T13:41:56.372Z,39.90
2022-11-20T13:47:16.527Z,39.90
2022-11-20T13:52:36.506Z,39.90
2022-11-20T13:57:56.709Z,39.90
2022-11-20T14:03:16.845Z,39.90
2022-11-20T14:08:37.159Z,39.90
2022-11-20T14:13:57.321Z,39.90
2022-11-20T14:19:17.581Z,40.00
2022-11-20T14:24:37.686Z,39.90
2022-11-20T14:29:57.959Z,39.90
2022-11-20T14:35:18.074Z,39.90
2022-11-20T14:40:38.272Z,40.00
2022-11-20T14:45:58.449Z,40.30
2022-11-20T14:51:18.666Z,39.90
2022-11-20T14:56:38.764Z,40.00
2022-11-20T15:01:59.025Z,40.00
2022-11-20T15:07:19.219Z,40.50
2022-11-20T15:12:39.300Z,41.00
2022-11-20T15:17:59.434Z,41.30
2022-11-20T15:23:19.618Z,42.20
2022-11-20T15:28:39.896Z,40.90
2022-11-20T15:33:59.985Z,40.60
2022-11-20T15:39:20.023Z,40.40
2022-11-20T15:44:40.290Z,40.20
2022-11-20T15:50:00.415Z,40.10
2022-11-20T15:55:20.630Z,40.80
2022-11-20T16:00:40.782Z,40.40
2022-11-20T16:06:04.091Z,40.20
2022-11-20T16:11:26.403Z,39.90
2022-11-20T16:16:46.636Z,40.00
2022-11-20T16:22:06.781Z,40.30
2022-11-20T16:27:26.983Z,41.00
2022-11-20T16:32:47.141Z,41.10
2022-11-20T16:38:07.396Z,40.70
2022-11-20T16:43:27.507Z,40.60
2022-11-20T16:48:47.807Z,40.50
2022-11-20T16:54:07.880Z,40.40
2022-11-20T16:59:28.076Z,40.30
2022-11-20T17:04:48.213Z,40.20
2022-11-20T17:10:08.496Z,40.20
2022-11-20T17:15:28.541Z,40.10
2022-11-20T17:20:48.803Z,39.90
2022-11-20T17:26:08.909Z,40.20
2022-11-20T17:31:28.951Z,40.10
2022-11-20T17:36:49.129Z,40.10
2022-11-20T17:42:09.322Z,40.20
2022-11-20T17:47:29.447Z,40.20
2022-11-20T17:52:49.686Z,40.20
2022-11-20T17:58:09.928Z,40.20
2022-11-20T18:03:30.168Z,40.20
2022-11-20T18:08:50.328Z,40.20
2022-11-20T18:14:10.577Z,40.30
2022-11-20T18:19:32.638Z,40.20
2022-11-20T18:24:52.849Z,40.20
2022-11-20T18:30:12.949Z,40.30
2022-11-20T18:35:33.198Z,40.30
2022-11-20T18:40:53.333Z,40.30
2022-11-20T18:46:13.568Z,40.30
2022-11-20T18:51:33.755Z,40.20
2022-11-20T18:56:53.921Z,40.20
2022-11-20T19:02:14.042Z,40.30
2022-11-20T19:07:34.217Z,40.30
2022-11-20T19:12:54.202Z,40.30
2022-11-20T19:18:14.379Z,40.90
2022-11-20T19:23:34.440Z,40.30
2022-11-20T19:28:54.805Z,40.30
2022-11-20T19:34:14.779Z,40.30
2022-11-20T19:39:35.067Z,40.30
2022-11-20T19:44:55.161Z,40.30
2022-11-20T19:50:15.435Z,40.30
2022-11-20T19:55:35.470Z,40.30
2022-11-20T20:00:55.601Z,40.20
2022-11-20T20:06:15.847Z,40.20
2022-11-20T20:11:36.030Z,40.20
2022-11-20T20:16:56.086Z,40.40
2022-11-20T20:22:16.394Z,40.20
2022-11-20T20:27:36.546Z,40.40
2022-11-20T20:32:56.724Z,40.30
2022-11-20T20:38:16.737Z,40.30
2022-11-20T20:43:36.773Z,40.30
2022-11-20T20:48:56.883Z,40.30
2022-11-20T20:54:16.922Z,40.30
2022-11-20T20:59:37.008Z,40.30
2022-11-20T21:04:57.197Z,40.30
2022-11-20T21:10:22.504Z,40.30
2022-11-20T21:15:43.530Z,40.30
2022-11-20T21:21:03.517Z,40.30
2022-11-20T21:26:23.627Z,40.30
2022-11-20T21:31:43.634Z,40.30
2022-11-20T21:37:03.970Z,40.30
2022-11-20T21:42:24.082Z,40.30
2022-11-20T21:47:44.287Z,40.30
2022-11-20T21:53:04.473Z,40.30
2022-11-20T21:58:24.607Z,40.30
2022-11-20T22:03:44.748Z,40.30
2022-11-20T22:09:04.998Z,40.20
2022-11-20T22:14:25.507Z,40.30
2022-11-20T22:19:45.927Z,40.30
2022-11-20T22:25:06.038Z,40.30
2022-11-20T22:30:26.222Z,40.30
2022-11-20T22:35:46.300Z,40.30
2022-11-20T22:41:06.838Z,40.30
2022-11-20T22:46:26.883Z,40.30
2022-11-20T22:51:47.149Z,40.30
2022-11-20T22:57:07.203Z,40.30
2022-11-20T23:02:27.366Z,40.30
2022-11-20T23:07:47.547Z,40.30
2022-11-20T23:13:07.729Z,40.30
2022-11-20T23:18:27.792Z,40.30
2022-11-20T23:23:47.993Z,40.30
2022-11-20T23:29:08.220Z,40.30
2022-11-20T23:34:28.482Z,40.30
2022-11-20T23:39:48.846Z,40.30
2022-11-20T23:45:09.006Z,40.30
2022-11-20T23:50:29.090Z,40.40
2022-11-20T23:55:49.251Z,40.30
